Estación Meteorológica Peña el Pijo (Robertgarden) [ 10/20/18 08:01:06 CEST ]

Fecha Hora Presion(HPa) Temp (°C) Humedad % Rocio (°C) Viento ( m/s) Direccion Lluvia 1Hora(mm) Lluvia 24H(mm) LLuvia Total(mm)
2018-Jun-10 01:01:40 1006.500 14.5 74 9.9         266.25
2018-Jun-10 02:01:46 1006.000 14.1 74 9.5         266.25
2018-Jun-10 03:01:47 1005.800 13.9 73 9.1 1.7 NW     266.25
2018-Jun-10 04:03:06 1005.000 13.9 71 8.7         266.25
2018-Jun-10 05:01:33 1004.100 13.5 70 8.1         266.25
2018-Jun-10 06:01:34 1004.700 13.4 70 8.1         266.25
2018-Jun-10 07:01:30 1004.900 13.3 71 8.2         266.25
2018-Jun-10 08:01:32 1005.100 13.5 71 8.3         266.25
2018-Jun-10 09:01:30 1005.000 15.3 67 9.4         266.25
2018-Jun-10 10:01:42 1005.300 17.2 62 9.8         266.25
2018-Jun-10 11:02:08 1005.000 17.8 59 9.6         266.25
2018-Jun-10 12:01:25 1004.800 21.3 53 11.5         266.25
2018-Jun-10 13:01:41 1004.600 20.4 52 10.2         266.25
2018-Jun-10 14:01:18 1004.300 20.8 51 10.6         266.25
2018-Jun-10 15:01:16 1004.000 23.1 48 11.3         266.25
2018-Jun-10 16:01:39 1003.700 22.6 46 10.3         266.25
2018-Jun-10 17:01:20 1003.700 22.6 48 11.0         266.25
2018-Jun-10 18:01:53 1003.600 24.6 42 10.8         266.25
2018-Jun-10 19:01:56 1003.500 21.8 44 8.9         266.25
2018-Jun-10 20:01:50 1003.900 21.2 43 8.1         266.25
2018-Jun-10 21:01:44 1004.400 18.2 48 6.9 0.6 WNW     266.25
2018-Jun-10 22:01:49 1005.200 16.6 54 7.2         266.25
2018-Jun-10 23:01:50 1005.800 15.7 59 7.7         266.25

Temperatura Máxima:24°    Temperatura Mínima:13°
Presión Máxima:1006.500 Hpa    Presión Mínima:1003.500 Hpa


Volver